sensor_id;sensor_type;location;lat;lon;timestamp;P1;durP1;ratioP1;P2;durP2;ratioP2
2039;SDS011;1025;42.686;23.350;2023-03-31T00:02:54;13.63;;;6.87;;
2039;SDS011;1025;42.686;23.350;2023-03-31T00:06:26;7.90;;;6.20;;
2039;SDS011;1025;42.686;23.350;2023-03-31T00:09:49;9.67;;;6.33;;
2039;SDS011;1025;42.686;23.350;2023-03-31T00:13:00;7.17;;;5.70;;
2039;SDS011;1025;42.686;23.350;2023-03-31T00:16:25;12.70;;;7.10;;
2039;SDS011;1025;42.686;23.350;2023-03-31T00:19:52;14.03;;;6.63;;
2039;SDS011;1025;42.686;23.350;2023-03-31T00:23:17;9.77;;;6.63;;
2039;SDS011;1025;42.686;23.350;2023-03-31T00:26:42;10.17;;;5.23;;
2039;SDS011;1025;42.686;23.350;2023-03-31T00:30:09;6.43;;;5.00;;
2039;SDS011;1025;42.686;23.350;2023-03-31T00:33:35;5.87;;;5.00;;
2039;SDS011;1025;42.686;23.350;2023-03-31T00:37:02;7.27;;;5.30;;
2039;SDS011;1025;42.686;23.350;2023-03-31T00:40:27;6.93;;;6.27;;
2039;SDS011;1025;42.686;23.350;2023-03-31T00:47:59;10.80;;;6.17;;
2039;SDS011;1025;42.686;23.350;2023-03-31T00:51:27;5.67;;;4.90;;
2039;SDS011;1025;42.686;23.350;2023-03-31T00:55:00;8.00;;;5.13;;
2039;SDS011;1025;42.686;23.350;2023-03-31T00:58:28;7.30;;;4.90;;
2039;SDS011;1025;42.686;23.350;2023-03-31T01:01:43;7.20;;;6.03;;
2039;SDS011;1025;42.686;23.350;2023-03-31T01:05:16;8.23;;;5.57;;
2039;SDS011;1025;42.686;23.350;2023-03-31T01:08:45;6.20;;;5.60;;
2039;SDS011;1025;42.686;23.350;2023-03-31T01:12:12;10.03;;;6.00;;
2039;SDS011;1025;42.686;23.350;2023-03-31T01:15:41;9.70;;;6.93;;
2039;SDS011;1025;42.686;23.350;2023-03-31T01:19:07;10.83;;;6.33;;
2039;SDS011;1025;42.686;23.350;2023-03-31T01:26:43;9.50;;;5.87;;
2039;SDS011;1025;42.686;23.350;2023-03-31T01:34:35;9.33;;;6.30;;
2039;SDS011;1025;42.686;23.350;2023-03-31T01:38:29;8.07;;;7.00;;
2039;SDS011;1025;42.686;23.350;2023-03-31T01:42:20;9.23;;;7.30;;
2039;SDS011;1025;42.686;23.350;2023-03-31T01:45:52;13.17;;;7.27;;
2039;SDS011;1025;42.686;23.350;2023-03-31T01:49:23;9.17;;;6.90;;
2039;SDS011;1025;42.686;23.350;2023-03-31T01:52:55;19.53;;;8.30;;
2039;SDS011;1025;42.686;23.350;2023-03-31T01:56:27;11.23;;;7.37;;
2039;SDS011;1025;42.686;23.350;2023-03-31T02:00:00;15.73;;;9.90;;
2039;SDS011;1025;42.686;23.350;2023-03-31T02:03:29;9.90;;;8.00;;
2039;SDS011;1025;42.686;23.350;2023-03-31T02:06:59;17.43;;;8.07;;
2039;SDS011;1025;42.686;23.350;2023-03-31T02:10:30;19.83;;;11.67;;
2039;SDS011;1025;42.686;23.350;2023-03-31T02:14:00;14.43;;;10.60;;
2039;SDS011;1025;42.686;23.350;2023-03-31T02:17:30;24.00;;;12.83;;
2039;SDS011;1025;42.686;23.350;2023-03-31T02:20:57;14.10;;;10.40;;
2039;SDS011;1025;42.686;23.350;2023-03-31T02:24:24;15.23;;;9.60;;
2039;SDS011;1025;42.686;23.350;2023-03-31T02:27:52;10.87;;;7.73;;
2039;SDS011;1025;42.686;23.350;2023-03-31T02:31:24;15.40;;;8.60;;
2039;SDS011;1025;42.686;23.350;2023-03-31T02:34:56;10.70;;;8.60;;
2039;SDS011;1025;42.686;23.350;2023-03-31T02:38:23;17.90;;;9.00;;
2039;SDS011;1025;42.686;23.350;2023-03-31T02:41:51;13.53;;;8.97;;
2039;SDS011;1025;42.686;23.350;2023-03-31T02:45:38;14.63;;;10.80;;
2039;SDS011;1025;42.686;23.350;2023-03-31T02:49:06;14.70;;;9.50;;
2039;SDS011;1025;42.686;23.350;2023-03-31T02:52:35;11.20;;;10.10;;
2039;SDS011;1025;42.686;23.350;2023-03-31T02:56:16;12.80;;;10.40;;
2039;SDS011;1025;42.686;23.350;2023-03-31T03:00:02;12.10;;;10.37;;
2039;SDS011;1025;42.686;23.350;2023-03-31T03:03:37;12.00;;;9.30;;
2039;SDS011;1025;42.686;23.350;2023-03-31T03:07:17;14.53;;;8.90;;
2039;SDS011;1025;42.686;23.350;2023-03-31T03:10:57;10.63;;;9.57;;
2039;SDS011;1025;42.686;23.350;2023-03-31T03:14:33;12.70;;;10.20;;
2039;SDS011;1025;42.686;23.350;2023-03-31T03:18:02;14.20;;;11.50;;
2039;SDS011;1025;42.686;23.350;2023-03-31T03:21:32;13.20;;;11.07;;
2039;SDS011;1025;42.686;23.350;2023-03-31T03:24:57;16.27;;;10.33;;
2039;SDS011;1025;42.686;23.350;2023-03-31T03:28:22;17.20;;;11.13;;
2039;SDS011;1025;42.686;23.350;2023-03-31T03:31:48;15.47;;;11.43;;
2039;SDS011;1025;42.686;23.350;2023-03-31T03:35:16;18.07;;;11.50;;
2039;SDS011;1025;42.686;23.350;2023-03-31T03:38:41;16.50;;;11.90;;
2039;SDS011;1025;42.686;23.350;2023-03-31T03:42:07;13.00;;;10.90;;
2039;SDS011;1025;42.686;23.350;2023-03-31T03:45:32;17.30;;;12.27;;
2039;SDS011;1025;42.686;23.350;2023-03-31T03:48:57;14.10;;;12.63;;
2039;SDS011;1025;42.686;23.350;2023-03-31T03:52:25;11.90;;;9.17;;
2039;SDS011;1025;42.686;23.350;2023-03-31T03:55:50;11.33;;;8.03;;
2039;SDS011;1025;42.686;23.350;2023-03-31T03:59:15;8.67;;;7.77;;
2039;SDS011;1025;42.686;23.350;2023-03-31T04:02:41;9.10;;;8.20;;
2039;SDS011;1025;42.686;23.350;2023-03-31T04:06:06;10.63;;;8.40;;
2039;SDS011;1025;42.686;23.350;2023-03-31T04:09:33;13.70;;;9.03;;
2039;SDS011;1025;42.686;23.350;2023-03-31T04:12:58;16.43;;;8.63;;
2039;SDS011;1025;42.686;23.350;2023-03-31T04:16:30;9.60;;;7.63;;
2039;SDS011;1025;42.686;23.350;2023-03-31T04:19:58;8.67;;;7.50;;
2039;SDS011;1025;42.686;23.350;2023-03-31T04:23:29;10.67;;;8.87;;
2039;SDS011;1025;42.686;23.350;2023-03-31T04:26:59;13.30;;;7.90;;
2039;SDS011;1025;42.686;23.350;2023-03-31T04:30:25;9.00;;;8.23;;
2039;SDS011;1025;42.686;23.350;2023-03-31T04:33:51;8.87;;;7.07;;
2039;SDS011;1025;42.686;23.350;2023-03-31T04:37:26;5.87;;;5.33;;
2039;SDS011;1025;42.686;23.350;2023-03-31T04:40:57;7.60;;;6.87;;
2039;SDS011;1025;42.686;23.350;2023-03-31T04:44:25;9.70;;;7.50;;
2039;SDS011;1025;42.686;23.350;2023-03-31T04:47:51;12.30;;;9.33;;
2039;SDS011;1025;42.686;23.350;2023-03-31T04:51:16;7.67;;;6.80;;
2039;SDS011;1025;42.686;23.350;2023-03-31T04:54:41;6.93;;;6.20;;
2039;SDS011;1025;42.686;23.350;2023-03-31T04:58:07;10.50;;;6.40;;
2039;SDS011;1025;42.686;23.350;2023-03-31T05:01:34;10.20;;;7.70;;
2039;SDS011;1025;42.686;23.350;2023-03-31T05:04:59;9.13;;;7.80;;
2039;SDS011;1025;42.686;23.350;2023-03-31T05:08:24;6.93;;;6.13;;
2039;SDS011;1025;42.686;23.350;2023-03-31T05:11:50;8.17;;;6.50;;
2039;SDS011;1025;42.686;23.350;2023-03-31T05:15:15;8.23;;;6.30;;
2039;SDS011;1025;42.686;23.350;2023-03-31T05:18:42;8.53;;;6.77;;
2039;SDS011;1025;42.686;23.350;2023-03-31T05:22:08;9.40;;;6.33;;
2039;SDS011;1025;42.686;23.350;2023-03-31T05:25:33;17.93;;;6.93;;
2039;SDS011;1025;42.686;23.350;2023-03-31T05:28:59;12.37;;;8.53;;
2039;SDS011;1025;42.686;23.350;2023-03-31T05:32:24;8.93;;;8.03;;
2039;SDS011;1025;42.686;23.350;2023-03-31T05:35:51;13.50;;;9.37;;
2039;SDS011;1025;42.686;23.350;2023-03-31T05:39:18;10.67;;;8.27;;
2039;SDS011;1025;42.686;23.350;2023-03-31T05:42:43;12.80;;;8.90;;
2039;SDS011;1025;42.686;23.350;2023-03-31T05:46:08;7.80;;;7.00;;
2039;SDS011;1025;42.686;23.350;2023-03-31T05:49:34;8.43;;;7.60;;
2039;SDS011;1025;42.686;23.350;2023-03-31T05:53:01;8.73;;;7.63;;
2039;SDS011;1025;42.686;23.350;2023-03-31T05:56:26;14.20;;;10.17;;
2039;SDS011;1025;42.686;23.350;2023-03-31T05:59:52;20.37;;;8.30;;
2039;SDS011;1025;42.686;23.350;2023-03-31T06:03:25;12.83;;;7.37;;
2039;SDS011;1025;42.686;23.350;2023-03-31T06:06:50;19.00;;;9.57;;
2039;SDS011;1025;42.686;23.350;2023-03-31T06:10:17;12.67;;;7.87;;
2039;SDS011;1025;42.686;23.350;2023-03-31T06:13:44;21.77;;;9.40;;
2039;SDS011;1025;42.686;23.350;2023-03-31T06:17:10;27.03;;;11.23;;
2039;SDS011;1025;42.686;23.350;2023-03-31T06:20:35;32.03;;;12.07;;
2039;SDS011;1025;42.686;23.350;2023-03-31T06:24:00;11.60;;;7.67;;
2039;SDS011;1025;42.686;23.350;2023-03-31T06:27:27;13.20;;;7.57;;
2039;SDS011;1025;42.686;23.350;2023-03-31T06:30:58;9.23;;;6.67;;
2039;SDS011;1025;42.686;23.350;2023-03-31T06:34:23;6.03;;;5.23;;
2039;SDS011;1025;42.686;23.350;2023-03-31T06:37:49;25.63;;;8.00;;
2039;SDS011;1025;42.686;23.350;2023-03-31T06:41:15;11.80;;;7.13;;
2039;SDS011;1025;42.686;23.350;2023-03-31T06:44:42;11.77;;;7.70;;
2039;SDS011;1025;42.686;23.350;2023-03-31T06:48:08;13.57;;;5.83;;
2039;SDS011;1025;42.686;23.350;2023-03-31T06:51:33;14.97;;;5.87;;
2039;SDS011;1025;42.686;23.350;2023-03-31T06:54:58;8.87;;;6.80;;
2039;SDS011;1025;42.686;23.350;2023-03-31T06:58:11;10.80;;;7.20;;
2039;SDS011;1025;42.686;23.350;2023-03-31T07:01:38;10.90;;;8.07;;
2039;SDS011;1025;42.686;23.350;2023-03-31T07:05:03;19.87;;;8.93;;
2039;SDS011;1025;42.686;23.350;2023-03-31T07:08:29;11.30;;;6.93;;
2039;SDS011;1025;42.686;23.350;2023-03-31T07:11:55;8.10;;;7.10;;
2039;SDS011;1025;42.686;23.350;2023-03-31T07:15:20;8.23;;;6.27;;
2039;SDS011;1025;42.686;23.350;2023-03-31T07:18:00;12.63;;;7.50;;
2039;SDS011;1025;42.686;23.350;2023-03-31T07:21:27;9.00;;;6.40;;
2039;SDS011;1025;42.686;23.350;2023-03-31T07:24:53;6.43;;;5.70;;
2039;SDS011;1025;42.686;23.350;2023-03-31T07:28:18;20.93;;;8.57;;
2039;SDS011;1025;42.686;23.350;2023-03-31T07:31:45;10.00;;;6.17;;
2039;SDS011;1025;42.686;23.350;2023-03-31T07:35:13;15.33;;;6.13;;
2039;SDS011;1025;42.686;23.350;2023-03-31T07:37:53;7.60;;;5.60;;
2039;SDS011;1025;42.686;23.350;2023-03-31T07:41:17;8.13;;;5.07;;
2039;SDS011;1025;42.686;23.350;2023-03-31T07:44:43;18.97;;;8.00;;
2039;SDS011;1025;42.686;23.350;2023-03-31T07:48:07;11.37;;;5.57;;
2039;SDS011;1025;42.686;23.350;2023-03-31T07:51:35;6.03;;;5.47;;
2039;SDS011;1025;42.686;23.350;2023-03-31T07:55:00;7.03;;;4.80;;
2039;SDS011;1025;42.686;23.350;2023-03-31T07:58:25;9.13;;;5.50;;
2039;SDS011;1025;42.686;23.350;2023-03-31T08:01:51;11.57;;;6.17;;
2039;SDS011;1025;42.686;23.350;2023-03-31T08:05:17;8.50;;;5.47;;
2039;SDS011;1025;42.686;23.350;2023-03-31T08:08:44;7.80;;;5.80;;
2039;SDS011;1025;42.686;23.350;2023-03-31T08:12:11;11.33;;;6.33;;
2039;SDS011;1025;42.686;23.350;2023-03-31T08:15:36;12.03;;;5.03;;
2039;SDS011;1025;42.686;23.350;2023-03-31T08:19:00;24.17;;;8.73;;
2039;SDS011;1025;42.686;23.350;2023-03-31T08:22:25;5.20;;;3.80;;
2039;SDS011;1025;42.686;23.350;2023-03-31T08:25:52;9.40;;;4.73;;
2039;SDS011;1025;42.686;23.350;2023-03-31T08:29:17;7.17;;;4.77;;
2039;SDS011;1025;42.686;23.350;2023-03-31T08:32:41;10.07;;;4.57;;
2039;SDS011;1025;42.686;23.350;2023-03-31T08:36:07;5.83;;;4.60;;
2039;SDS011;1025;42.686;23.350;2023-03-31T08:39:32;7.43;;;3.70;;
2039;SDS011;1025;42.686;23.350;2023-03-31T08:43:01;10.13;;;3.70;;
2039;SDS011;1025;42.686;23.350;2023-03-31T08:46:32;7.73;;;3.93;;
2039;SDS011;1025;42.686;23.350;2023-03-31T08:50:02;8.30;;;4.10;;
2039;SDS011;1025;42.686;23.350;2023-03-31T08:53:33;6.90;;;3.80;;
2039;SDS011;1025;42.686;23.350;2023-03-31T08:57:04;5.20;;;3.73;;
2039;SDS011;1025;42.686;23.350;2023-03-31T09:00:37;10.30;;;5.33;;
2039;SDS011;1025;42.686;23.350;2023-03-31T09:04:14;9.93;;;4.00;;
2039;SDS011;1025;42.686;23.350;2023-03-31T09:07:59;5.03;;;3.63;;
2039;SDS011;1025;42.686;23.350;2023-03-31T09:11:29;7.33;;;4.00;;
2039;SDS011;1025;42.686;23.350;2023-03-31T09:15:03;4.37;;;2.87;;
2039;SDS011;1025;42.686;23.350;2023-03-31T09:18:37;5.53;;;3.63;;
2039;SDS011;1025;42.686;23.350;2023-03-31T09:22:08;8.07;;;4.97;;
2039;SDS011;1025;42.686;23.350;2023-03-31T09:25:43;10.20;;;4.13;;
2039;SDS011;1025;42.686;23.350;2023-03-31T09:29:12;15.50;;;5.03;;
2039;SDS011;1025;42.686;23.350;2023-03-31T09:32:42;7.80;;;2.83;;
2039;SDS011;1025;42.686;23.350;2023-03-31T09:36:12;8.70;;;3.10;;
2039;SDS011;1025;42.686;23.350;2023-03-31T09:39:32;5.60;;;3.43;;
2039;SDS011;1025;42.686;23.350;2023-03-31T09:42:58;3.63;;;2.80;;
2039;SDS011;1025;42.686;23.350;2023-03-31T09:46:27;9.93;;;2.93;;
2039;SDS011;1025;42.686;23.350;2023-03-31T09:49:45;7.97;;;3.97;;
2039;SDS011;1025;42.686;23.350;2023-03-31T09:53:13;6.10;;;3.10;;
2039;SDS011;1025;42.686;23.350;2023-03-31T09:56:47;5.13;;;3.70;;
2039;SDS011;1025;42.686;23.350;2023-03-31T10:00:16;2.70;;;2.50;;
2039;SDS011;1025;42.686;23.350;2023-03-31T10:03:46;5.73;;;3.20;;
2039;SDS011;1025;42.686;23.350;2023-03-31T10:07:18;4.03;;;2.27;;
2039;SDS011;1025;42.686;23.350;2023-03-31T10:10:50;6.17;;;3.90;;
2039;SDS011;1025;42.686;23.350;2023-03-31T10:14:23;3.90;;;3.00;;
2039;SDS011;1025;42.686;23.350;2023-03-31T10:17:52;4.20;;;3.03;;
2039;SDS011;1025;42.686;23.350;2023-03-31T10:21:20;8.30;;;4.53;;
2039;SDS011;1025;42.686;23.350;2023-03-31T10:24:53;6.87;;;5.53;;
2039;SDS011;1025;42.686;23.350;2023-03-31T10:27:36;7.87;;;3.40;;
2039;SDS011;1025;42.686;23.350;2023-03-31T10:31:04;8.47;;;4.10;;
2039;SDS011;1025;42.686;23.350;2023-03-31T10:34:35;9.50;;;3.37;;
2039;SDS011;1025;42.686;23.350;2023-03-31T10:38:03;3.13;;;2.30;;
2039;SDS011;1025;42.686;23.350;2023-03-31T10:40:37;6.07;;;3.30;;
2039;SDS011;1025;42.686;23.350;2023-03-31T10:44:05;6.47;;;3.60;;
2039;SDS011;1025;42.686;23.350;2023-03-31T10:47:38;5.50;;;3.03;;
2039;SDS011;1025;42.686;23.350;2023-03-31T10:51:10;3.80;;;3.37;;
2039;SDS011;1025;42.686;23.350;2023-03-31T10:53:41;4.20;;;3.67;;
2039;SDS011;1025;42.686;23.350;2023-03-31T10:56:18;4.23;;;3.83;;
2039;SDS011;1025;42.686;23.350;2023-03-31T10:59:03;13.57;;;4.30;;
2039;SDS011;1025;42.686;23.350;2023-03-31T11:01:41;5.90;;;3.00;;
2039;SDS011;1025;42.686;23.350;2023-03-31T11:05:25;9.13;;;3.50;;
2039;SDS011;1025;42.686;23.350;2023-03-31T11:08:01;4.20;;;3.90;;
2039;SDS011;1025;42.686;23.350;2023-03-31T11:10:45;38.63;;;6.67;;
2039;SDS011;1025;42.686;23.350;2023-03-31T11:14:23;8.90;;;3.70;;
2039;SDS011;1025;42.686;23.350;2023-03-31T11:18:02;10.43;;;3.37;;
2039;SDS011;1025;42.686;23.350;2023-03-31T11:21:40;4.90;;;3.33;;
2039;SDS011;1025;42.686;23.350;2023-03-31T11:25:17;4.13;;;2.87;;
2039;SDS011;1025;42.686;23.350;2023-03-31T11:28:52;3.23;;;2.93;;
2039;SDS011;1025;42.686;23.350;2023-03-31T11:32:29;11.93;;;4.73;;
2039;SDS011;1025;42.686;23.350;2023-03-31T11:36:11;9.47;;;3.53;;
2039;SDS011;1025;42.686;23.350;2023-03-31T11:40:15;5.03;;;3.73;;
2039;SDS011;1025;42.686;23.350;2023-03-31T11:43:46;4.43;;;3.07;;
2039;SDS011;1025;42.686;23.350;2023-03-31T11:47:18;6.13;;;3.30;;
2039;SDS011;1025;42.686;23.350;2023-03-31T11:50:46;7.40;;;3.27;;
2039;SDS011;1025;42.686;23.350;2023-03-31T11:54:17;5.73;;;3.53;;
2039;SDS011;1025;42.686;23.350;2023-03-31T11:57:57;6.03;;;2.90;;
2039;SDS011;1025;42.686;23.350;2023-03-31T12:01:26;8.87;;;3.10;;
2039;SDS011;1025;42.686;23.350;2023-03-31T12:04:59;9.53;;;3.43;;
2039;SDS011;1025;42.686;23.350;2023-03-31T12:08:38;8.10;;;4.20;;
2039;SDS011;1025;42.686;23.350;2023-03-31T12:11:38;4.70;;;3.07;;
2039;SDS011;1025;42.686;23.350;2023-03-31T12:15:11;6.80;;;3.07;;
2039;SDS011;1025;42.686;23.350;2023-03-31T12:18:41;12.23;;;4.60;;
2039;SDS011;1025;42.686;23.350;2023-03-31T12:22:12;7.40;;;2.80;;
2039;SDS011;1025;42.686;23.350;2023-03-31T12:25:43;4.17;;;2.63;;
2039;SDS011;1025;42.686;23.350;2023-03-31T12:29:21;3.43;;;2.47;;
2039;SDS011;1025;42.686;23.350;2023-03-31T12:32:54;3.10;;;2.80;;
2039;SDS011;1025;42.686;23.350;2023-03-31T12:36:25;10.67;;;3.50;;
2039;SDS011;1025;42.686;23.350;2023-03-31T12:40:22;6.93;;;3.03;;
2039;SDS011;1025;42.686;23.350;2023-03-31T12:44:12;7.83;;;3.73;;
2039;SDS011;1025;42.686;23.350;2023-03-31T12:47:48;6.53;;;2.50;;
2039;SDS011;1025;42.686;23.350;2023-03-31T12:51:28;6.93;;;3.17;;
2039;SDS011;1025;42.686;23.350;2023-03-31T12:58:53;3.93;;;3.20;;
2039;SDS011;1025;42.686;23.350;2023-03-31T13:02:37;5.97;;;4.30;;
2039;SDS011;1025;42.686;23.350;2023-03-31T13:06:10;10.57;;;4.33;;
2039;SDS011;1025;42.686;23.350;2023-03-31T13:09:39;4.43;;;3.30;;
2039;SDS011;1025;42.686;23.350;2023-03-31T13:13:20;6.43;;;2.53;;
2039;SDS011;1025;42.686;23.350;2023-03-31T13:16:46;6.80;;;2.80;;
2039;SDS011;1025;42.686;23.350;2023-03-31T13:19:39;7.40;;;2.93;;
2039;SDS011;1025;42.686;23.350;2023-03-31T13:23:08;5.03;;;3.17;;
2039;SDS011;1025;42.686;23.350;2023-03-31T13:26:39;5.00;;;3.10;;
2039;SDS011;1025;42.686;23.350;2023-03-31T13:29:58;9.93;;;5.50;;
2039;SDS011;1025;42.686;23.350;2023-03-31T13:33:22;5.00;;;3.37;;
2039;SDS011;1025;42.686;23.350;2023-03-31T13:36:55;8.30;;;3.60;;
2039;SDS011;1025;42.686;23.350;2023-03-31T13:40:36;6.10;;;3.00;;
2039;SDS011;1025;42.686;23.350;2023-03-31T13:48:13;3.93;;;2.57;;
2039;SDS011;1025;42.686;23.350;2023-03-31T13:52:09;2.37;;;2.17;;
2039;SDS011;1025;42.686;23.350;2023-03-31T13:55:53;5.40;;;3.10;;
2039;SDS011;1025;42.686;23.350;2023-03-31T14:03:26;14.47;;;3.93;;
2039;SDS011;1025;42.686;23.350;2023-03-31T14:07:08;7.90;;;3.10;;
2039;SDS011;1025;42.686;23.350;2023-03-31T14:10:39;4.30;;;2.63;;
2039;SDS011;1025;42.686;23.350;2023-03-31T14:14:10;6.60;;;2.23;;
2039;SDS011;1025;42.686;23.350;2023-03-31T14:17:43;6.17;;;3.33;;
2039;SDS011;1025;42.686;23.350;2023-03-31T14:21:17;4.63;;;3.03;;
2039;SDS011;1025;42.686;23.350;2023-03-31T14:24:54;10.70;;;3.67;;
2039;SDS011;1025;42.686;23.350;2023-03-31T14:28:34;11.83;;;4.40;;
2039;SDS011;1025;42.686;23.350;2023-03-31T14:32:10;5.40;;;3.33;;
2039;SDS011;1025;42.686;23.350;2023-03-31T14:35:50;6.67;;;2.80;;
2039;SDS011;1025;42.686;23.350;2023-03-31T14:39:23;7.40;;;3.83;;
2039;SDS011;1025;42.686;23.350;2023-03-31T14:42:51;4.93;;;3.70;;
2039;SDS011;1025;42.686;23.350;2023-03-31T14:46:18;3.37;;;2.90;;
2039;SDS011;1025;42.686;23.350;2023-03-31T14:49:46;8.17;;;4.17;;
2039;SDS011;1025;42.686;23.350;2023-03-31T14:53:13;7.60;;;4.73;;
2039;SDS011;1025;42.686;23.350;2023-03-31T14:56:44;15.77;;;4.30;;
2039;SDS011;1025;42.686;23.350;2023-03-31T15:00:12;6.90;;;3.07;;
2039;SDS011;1025;42.686;23.350;2023-03-31T15:03:41;4.77;;;3.03;;
2039;SDS011;1025;42.686;23.350;2023-03-31T15:07:10;6.47;;;3.30;;
2039;SDS011;1025;42.686;23.350;2023-03-31T15:10:38;4.20;;;2.40;;
2039;SDS011;1025;42.686;23.350;2023-03-31T15:14:05;4.23;;;2.90;;
2039;SDS011;1025;42.686;23.350;2023-03-31T15:17:35;3.83;;;2.40;;
2039;SDS011;1025;42.686;23.350;2023-03-31T15:21:04;8.60;;;3.57;;
2039;SDS011;1025;42.686;23.350;2023-03-31T15:24:35;7.50;;;4.63;;
2039;SDS011;1025;42.686;23.350;2023-03-31T15:28:03;4.00;;;2.83;;
2039;SDS011;1025;42.686;23.350;2023-03-31T15:31:34;4.33;;;3.20;;
2039;SDS011;1025;42.686;23.350;2023-03-31T15:35:00;4.80;;;4.30;;
2039;SDS011;1025;42.686;23.350;2023-03-31T15:38:27;7.47;;;3.33;;
2039;SDS011;1025;42.686;23.350;2023-03-31T15:41:10;10.40;;;3.97;;
2039;SDS011;1025;42.686;23.350;2023-03-31T15:44:38;10.27;;;4.20;;
2039;SDS011;1025;42.686;23.350;2023-03-31T15:48:17;4.80;;;2.33;;
2039;SDS011;1025;42.686;23.350;2023-03-31T15:50:53;10.87;;;4.80;;
2039;SDS011;1025;42.686;23.350;2023-03-31T15:54:35;4.20;;;3.10;;
2039;SDS011;1025;42.686;23.350;2023-03-31T15:58:05;5.53;;;2.27;;
2039;SDS011;1025;42.686;23.350;2023-03-31T16:01:48;10.63;;;3.20;;
2039;SDS011;1025;42.686;23.350;2023-03-31T16:05:22;2.80;;;2.60;;
2039;SDS011;1025;42.686;23.350;2023-03-31T16:08:56;4.10;;;2.63;;
2039;SDS011;1025;42.686;23.350;2023-03-31T16:12:26;5.40;;;2.90;;
2039;SDS011;1025;42.686;23.350;2023-03-31T16:15:53;7.17;;;3.70;;
2039;SDS011;1025;42.686;23.350;2023-03-31T16:19:23;4.20;;;3.80;;
2039;SDS011;1025;42.686;23.350;2023-03-31T16:22:52;3.60;;;2.60;;
2039;SDS011;1025;42.686;23.350;2023-03-31T16:26:20;6.73;;;3.80;;
2039;SDS011;1025;42.686;23.350;2023-03-31T16:29:47;5.97;;;4.23;;
2039;SDS011;1025;42.686;23.350;2023-03-31T16:32:15;6.63;;;3.37;;
2039;SDS011;1025;42.686;23.350;2023-03-31T16:35:43;3.40;;;3.10;;
2039;SDS011;1025;42.686;23.350;2023-03-31T16:39:09;6.90;;;5.10;;
2039;SDS011;1025;42.686;23.350;2023-03-31T16:42:38;12.97;;;6.77;;
2039;SDS011;1025;42.686;23.350;2023-03-31T16:46:03;16.83;;;5.67;;
2039;SDS011;1025;42.686;23.350;2023-03-31T16:49:30;15.50;;;6.87;;
2039;SDS011;1025;42.686;23.350;2023-03-31T16:52:55;10.60;;;6.77;;
2039;SDS011;1025;42.686;23.350;2023-03-31T16:56:21;21.03;;;6.43;;
2039;SDS011;1025;42.686;23.350;2023-03-31T16:59:46;10.90;;;6.40;;
2039;SDS011;1025;42.686;23.350;2023-03-31T17:03:12;11.00;;;5.00;;
2039;SDS011;1025;42.686;23.350;2023-03-31T17:06:40;9.57;;;4.87;;
2039;SDS011;1025;42.686;23.350;2023-03-31T17:10:06;6.63;;;5.00;;
2039;SDS011;1025;42.686;23.350;2023-03-31T17:13:35;8.67;;;5.37;;
2039;SDS011;1025;42.686;23.350;2023-03-31T17:17:00;5.70;;;4.20;;
2039;SDS011;1025;42.686;23.350;2023-03-31T17:20:26;14.30;;;7.00;;
2039;SDS011;1025;42.686;23.350;2023-03-31T17:23:53;8.73;;;6.00;;
2039;SDS011;1025;42.686;23.350;2023-03-31T17:27:22;12.33;;;6.53;;
2039;SDS011;1025;42.686;23.350;2023-03-31T17:30:47;9.83;;;5.57;;
2039;SDS011;1025;42.686;23.350;2023-03-31T17:34:13;9.30;;;4.40;;
2039;SDS011;1025;42.686;23.350;2023-03-31T17:37:44;13.10;;;5.47;;
2039;SDS011;1025;42.686;23.350;2023-03-31T17:41:11;10.23;;;5.47;;
2039;SDS011;1025;42.686;23.350;2023-03-31T17:44:38;10.53;;;5.77;;
2039;SDS011;1025;42.686;23.350;2023-03-31T17:48:03;10.03;;;5.67;;
2039;SDS011;1025;42.686;23.350;2023-03-31T17:51:28;7.40;;;6.00;;
2039;SDS011;1025;42.686;23.350;2023-03-31T17:54:54;9.37;;;6.03;;
2039;SDS011;1025;42.686;23.350;2023-03-31T17:58:21;17.70;;;6.30;;
2039;SDS011;1025;42.686;23.350;2023-03-31T18:01:46;10.33;;;6.70;;
2039;SDS011;1025;42.686;23.350;2023-03-31T18:05:11;13.10;;;6.40;;
2039;SDS011;1025;42.686;23.350;2023-03-31T18:08:38;6.87;;;5.03;;
2039;SDS011;1025;42.686;23.350;2023-03-31T18:12:04;15.00;;;6.80;;
2039;SDS011;1025;42.686;23.350;2023-03-31T18:15:31;9.27;;;5.20;;
2039;SDS011;1025;42.686;23.350;2023-03-31T18:18:56;15.47;;;7.17;;
2039;SDS011;1025;42.686;23.350;2023-03-31T18:22:23;21.00;;;9.20;;
2039;SDS011;1025;42.686;23.350;2023-03-31T18:25:48;26.37;;;8.87;;
2039;SDS011;1025;42.686;23.350;2023-03-31T18:29:13;12.27;;;5.90;;
2039;SDS011;1025;42.686;23.350;2023-03-31T18:32:40;19.80;;;7.53;;
2039;SDS011;1025;42.686;23.350;2023-03-31T18:36:06;18.97;;;9.63;;
2039;SDS011;1025;42.686;23.350;2023-03-31T18:39:32;20.80;;;9.17;;
2039;SDS011;1025;42.686;23.350;2023-03-31T18:42:57;14.40;;;9.60;;
2039;SDS011;1025;42.686;23.350;2023-03-31T18:45:35;15.90;;;8.67;;
2039;SDS011;1025;42.686;23.350;2023-03-31T18:48:41;16.10;;;7.47;;
2039;SDS011;1025;42.686;23.350;2023-03-31T18:51:15;20.83;;;6.73;;
2039;SDS011;1025;42.686;23.350;2023-03-31T18:54:40;8.13;;;5.33;;
2039;SDS011;1025;42.686;23.350;2023-03-31T18:58:05;9.27;;;7.27;;
2039;SDS011;1025;42.686;23.350;2023-03-31T19:01:29;10.87;;;6.60;;
2039;SDS011;1025;42.686;23.350;2023-03-31T19:04:56;11.13;;;7.27;;
2039;SDS011;1025;42.686;23.350;2023-03-31T19:08:25;15.10;;;7.50;;
2039;SDS011;1025;42.686;23.350;2023-03-31T19:11:52;11.60;;;7.27;;
2039;SDS011;1025;42.686;23.350;2023-03-31T19:15:17;15.93;;;6.50;;
2039;SDS011;1025;42.686;23.350;2023-03-31T19:18:42;14.43;;;6.40;;
2039;SDS011;1025;42.686;23.350;2023-03-31T19:22:10;12.30;;;6.87;;
2039;SDS011;1025;42.686;23.350;2023-03-31T19:25:36;29.47;;;8.80;;
2039;SDS011;1025;42.686;23.350;2023-03-31T19:29:01;17.20;;;11.40;;
2039;SDS011;1025;42.686;23.350;2023-03-31T19:32:27;18.37;;;12.23;;
2039;SDS011;1025;42.686;23.350;2023-03-31T19:35:55;17.90;;;13.20;;
2039;SDS011;1025;42.686;23.350;2023-03-31T19:39:22;23.40;;;15.13;;
2039;SDS011;1025;42.686;23.350;2023-03-31T19:42:47;15.33;;;13.67;;
2039;SDS011;1025;42.686;23.350;2023-03-31T19:46:13;22.77;;;15.73;;
2039;SDS011;1025;42.686;23.350;2023-03-31T19:49:38;31.13;;;15.17;;
2039;SDS011;1025;42.686;23.350;2023-03-31T19:53:03;19.70;;;15.60;;
2039;SDS011;1025;42.686;23.350;2023-03-31T19:56:30;23.03;;;15.03;;
2039;SDS011;1025;42.686;23.350;2023-03-31T19:59:56;22.50;;;15.00;;
2039;SDS011;1025;42.686;23.350;2023-03-31T20:03:23;18.67;;;13.80;;
2039;SDS011;1025;42.686;23.350;2023-03-31T20:06:48;16.10;;;13.00;;
2039;SDS011;1025;42.686;23.350;2023-03-31T20:10:13;18.47;;;14.53;;
2039;SDS011;1025;42.686;23.350;2023-03-31T20:13:43;27.47;;;15.23;;
2039;SDS011;1025;42.686;23.350;2023-03-31T20:17:09;13.27;;;10.60;;
2039;SDS011;1025;42.686;23.350;2023-03-31T20:20:34;13.27;;;10.27;;
2039;SDS011;1025;42.686;23.350;2023-03-31T20:24:02;10.50;;;8.30;;
2039;SDS011;1025;42.686;23.350;2023-03-31T20:27:27;14.00;;;12.50;;
2039;SDS011;1025;42.686;23.350;2023-03-31T20:30:54;11.13;;;9.27;;
2039;SDS011;1025;42.686;23.350;2023-03-31T20:34:19;14.00;;;10.90;;
2039;SDS011;1025;42.686;23.350;2023-03-31T20:37:45;10.30;;;8.33;;
2039;SDS011;1025;42.686;23.350;2023-03-31T20:41:11;10.77;;;7.40;;
2039;SDS011;1025;42.686;23.350;2023-03-31T20:44:37;8.33;;;7.53;;
2039;SDS011;1025;42.686;23.350;2023-03-31T20:48:03;11.63;;;8.83;;
2039;SDS011;1025;42.686;23.350;2023-03-31T20:51:31;10.67;;;8.63;;
2039;SDS011;1025;42.686;23.350;2023-03-31T20:54:57;11.77;;;9.77;;
2039;SDS011;1025;42.686;23.350;2023-03-31T20:58:23;9.67;;;8.60;;
2039;SDS011;1025;42.686;23.350;2023-03-31T21:01:48;12.87;;;9.70;;
2039;SDS011;1025;42.686;23.350;2023-03-31T21:05:15;12.53;;;9.77;;
2039;SDS011;1025;42.686;23.350;2023-03-31T21:08:42;22.97;;;11.97;;
2039;SDS011;1025;42.686;23.350;2023-03-31T21:12:08;13.50;;;10.10;;
2039;SDS011;1025;42.686;23.350;2023-03-31T21:15:33;9.40;;;7.50;;
2039;SDS011;1025;42.686;23.350;2023-03-31T21:18:58;10.37;;;7.77;;